MMTG/TGZ METAR and TAF weather

Enter ICAO airport designator
Station Type Date Time Source
MMTG METAR 2019/08/22 04:49 UTC NOAA

MMTG 220449Z 15005KT 8SM BKN300 23/21 A3006 RMK 8/003 CB DSTNTS ARND


Station Type Date Time Source
MMTG Decoded METAR 2019/08/22 04:49 UTC NOAA

Station name not available
Aug 22, 2019 - 12:49 AM EDT / 2019.08.22 0449 UTC
Wind: from the SSE (150 degrees) at 6 MPH (5 KT):0
Visibility: 8 mile(s):0
Sky conditions: mostly cloudy
Weather: Cumulonimbus clouds observed
Temperature: 73 F (23 C)
Dew Point: 69 F (21 C)
Relative Humidity: 88%
Pressure (altimeter): 30.06 in. Hg (1017 hPa)
ob: MMTG 220449Z 15005KT 8SM BKN300 23/21 A3006 RMK 8/003 CB DSTNTS ARND
cycle: 5

Station Type Date Time Source
MMTG TAF 2019/08/22 06:21 UTC NOAA

TAF MMTG 220514Z 2206/2306 15005KT P6SM BKN250 PROB40 2206/2209 5SM TSRA BKN030CB
TEMPO 2211/2215 3SM BR HZ SCT005
FM221800 23010KT P6SM SCT030CB BKN080 BKN250
FM230500 15005KT P6SM BKN250

Example: see airport list